sensor_id;sensor_type;location;lat;lon;timestamp;P1;durP1;ratioP1;P2;durP2;ratioP2
3309;SDS011;1667;53.238;10.394;2023-02-23T00:01:57;18.60;;;9.93;;
3309;SDS011;1667;53.238;10.394;2023-02-23T00:07:01;18.63;;;11.10;;
3309;SDS011;1667;53.238;10.394;2023-02-23T00:11:59;9.40;;;6.20;;
3309;SDS011;1667;53.238;10.394;2023-02-23T00:17:04;14.07;;;8.30;;
3309;SDS011;1667;53.238;10.394;2023-02-23T00:22:09;11.23;;;6.93;;
3309;SDS011;1667;53.238;10.394;2023-02-23T00:27:08;11.67;;;5.83;;
3309;SDS011;1667;53.238;10.394;2023-02-23T00:32:14;9.80;;;6.50;;
3309;SDS011;1667;53.238;10.394;2023-02-23T00:37:15;17.67;;;8.43;;
3309;SDS011;1667;53.238;10.394;2023-02-23T00:42:16;20.93;;;10.20;;
3309;SDS011;1667;53.238;10.394;2023-02-23T00:53:09;11.23;;;7.00;;
3309;SDS011;1667;53.238;10.394;2023-02-23T00:58:07;18.57;;;9.97;;
3309;SDS011;1667;53.238;10.394;2023-02-23T01:03:05;10.20;;;6.73;;
3309;SDS011;1667;53.238;10.394;2023-02-23T01:08:04;20.63;;;10.30;;
3309;SDS011;1667;53.238;10.394;2023-02-23T01:13:06;12.90;;;7.37;;
3309;SDS011;1667;53.238;10.394;2023-02-23T01:18:05;13.77;;;9.27;;
3309;SDS011;1667;53.238;10.394;2023-02-23T01:23:03;12.63;;;7.70;;
3309;SDS011;1667;53.238;10.394;2023-02-23T01:28:02;12.87;;;7.27;;
3309;SDS011;1667;53.238;10.394;2023-02-23T01:33:02;15.57;;;8.20;;
3309;SDS011;1667;53.238;10.394;2023-02-23T01:38:02;16.70;;;8.43;;
3309;SDS011;1667;53.238;10.394;2023-02-23T01:43:08;15.13;;;8.70;;
3309;SDS011;1667;53.238;10.394;2023-02-23T01:48:11;14.93;;;8.33;;
3309;SDS011;1667;53.238;10.394;2023-02-23T01:53:11;7.63;;;6.53;;
3309;SDS011;1667;53.238;10.394;2023-02-23T01:58:10;9.23;;;6.70;;
3309;SDS011;1667;53.238;10.394;2023-02-23T02:03:14;18.87;;;8.53;;
3309;SDS011;1667;53.238;10.394;2023-02-23T02:08:18;11.97;;;6.53;;
3309;SDS011;1667;53.238;10.394;2023-02-23T02:13:19;21.13;;;8.30;;
3309;SDS011;1667;53.238;10.394;2023-02-23T02:18:24;14.70;;;8.53;;
3309;SDS011;1667;53.238;10.394;2023-02-23T02:23:45;9.70;;;5.90;;
3309;SDS011;1667;53.238;10.394;2023-02-23T02:40:26;12.27;;;6.10;;
3309;SDS011;1667;53.238;10.394;2023-02-23T02:45:29;18.10;;;9.53;;
3309;SDS011;1667;53.238;10.394;2023-02-23T02:50:35;11.80;;;5.87;;
3309;SDS011;1667;53.238;10.394;2023-02-23T02:55:43;19.10;;;9.60;;
3309;SDS011;1667;53.238;10.394;2023-02-23T03:00:46;9.20;;;5.73;;
3309;SDS011;1667;53.238;10.394;2023-02-23T03:06:04;17.90;;;9.37;;
3309;SDS011;1667;53.238;10.394;2023-02-23T03:11:21;16.17;;;9.70;;
3309;SDS011;1667;53.238;10.394;2023-02-23T03:16:42;20.30;;;9.70;;
3309;SDS011;1667;53.238;10.394;2023-02-23T03:22:06;12.57;;;6.27;;
3309;SDS011;1667;53.238;10.394;2023-02-23T03:27:38;13.03;;;8.33;;
3309;SDS011;1667;53.238;10.394;2023-02-23T03:33:02;22.37;;;11.30;;
3309;SDS011;1667;53.238;10.394;2023-02-23T03:38:24;29.53;;;13.00;;
3309;SDS011;1667;53.238;10.394;2023-02-23T03:43:48;16.07;;;7.43;;
3309;SDS011;1667;53.238;10.394;2023-02-23T03:49:08;13.33;;;5.87;;
3309;SDS011;1667;53.238;10.394;2023-02-23T03:54:29;22.10;;;10.60;;
3309;SDS011;1667;53.238;10.394;2023-02-23T03:59:52;10.60;;;6.50;;
3309;SDS011;1667;53.238;10.394;2023-02-23T04:05:12;17.80;;;8.33;;
3309;SDS011;1667;53.238;10.394;2023-02-23T04:10:32;24.10;;;12.47;;
3309;SDS011;1667;53.238;10.394;2023-02-23T04:15:51;13.00;;;7.63;;
3309;SDS011;1667;53.238;10.394;2023-02-23T04:20:52;21.50;;;9.93;;
3309;SDS011;1667;53.238;10.394;2023-02-23T04:25:51;29.43;;;13.00;;
3309;SDS011;1667;53.238;10.394;2023-02-23T04:30:52;18.63;;;10.60;;
3309;SDS011;1667;53.238;10.394;2023-02-23T04:35:51;11.50;;;7.13;;
3309;SDS011;1667;53.238;10.394;2023-02-23T04:40:50;27.97;;;10.93;;
3309;SDS011;1667;53.238;10.394;2023-02-23T04:45:49;14.50;;;8.30;;
3309;SDS011;1667;53.238;10.394;2023-02-23T04:50:51;25.23;;;11.40;;
3309;SDS011;1667;53.238;10.394;2023-02-23T04:55:50;31.83;;;11.23;;
3309;SDS011;1667;53.238;10.394;2023-02-23T05:00:48;26.23;;;13.97;;
3309;SDS011;1667;53.238;10.394;2023-02-23T05:05:47;21.40;;;10.10;;
3309;SDS011;1667;53.238;10.394;2023-02-23T05:10:47;12.57;;;8.10;;
3309;SDS011;1667;53.238;10.394;2023-02-23T05:15:45;20.43;;;10.83;;
3309;SDS011;1667;53.238;10.394;2023-02-23T05:20:44;30.80;;;13.00;;
3309;SDS011;1667;53.238;10.394;2023-02-23T05:25:43;26.77;;;10.80;;
3309;SDS011;1667;53.238;10.394;2023-02-23T05:30:43;19.90;;;10.70;;
3309;SDS011;1667;53.238;10.394;2023-02-23T05:35:41;21.80;;;10.70;;
3309;SDS011;1667;53.238;10.394;2023-02-23T05:40:40;22.77;;;11.87;;
3309;SDS011;1667;53.238;10.394;2023-02-23T05:45:39;19.13;;;10.17;;
3309;SDS011;1667;53.238;10.394;2023-02-23T05:50:39;12.23;;;7.70;;
3309;SDS011;1667;53.238;10.394;2023-02-23T05:55:37;22.07;;;10.70;;
3309;SDS011;1667;53.238;10.394;2023-02-23T06:00:36;23.73;;;13.60;;
3309;SDS011;1667;53.238;10.394;2023-02-23T06:05:34;17.60;;;9.53;;
3309;SDS011;1667;53.238;10.394;2023-02-23T06:10:34;21.27;;;11.00;;
3309;SDS011;1667;53.238;10.394;2023-02-23T06:15:33;20.90;;;11.33;;
3309;SDS011;1667;53.238;10.394;2023-02-23T06:20:31;17.53;;;9.37;;
3309;SDS011;1667;53.238;10.394;2023-02-23T06:25:30;18.97;;;10.37;;
3309;SDS011;1667;53.238;10.394;2023-02-23T06:30:29;25.43;;;12.40;;
3309;SDS011;1667;53.238;10.394;2023-02-23T06:35:28;24.80;;;12.73;;
3309;SDS011;1667;53.238;10.394;2023-02-23T06:40:27;22.97;;;10.77;;
3309;SDS011;1667;53.238;10.394;2023-02-23T06:45:26;15.50;;;8.93;;
3309;SDS011;1667;53.238;10.394;2023-02-23T06:50:26;20.07;;;11.60;;
3309;SDS011;1667;53.238;10.394;2023-02-23T06:55:25;16.57;;;9.83;;
3309;SDS011;1667;53.238;10.394;2023-02-23T07:00:24;29.40;;;14.70;;
3309;SDS011;1667;53.238;10.394;2023-02-23T07:05:23;36.17;;;18.80;;
3309;SDS011;1667;53.238;10.394;2023-02-23T07:10:23;21.90;;;11.33;;
3309;SDS011;1667;53.238;10.394;2023-02-23T07:15:21;22.57;;;10.80;;
3309;SDS011;1667;53.238;10.394;2023-02-23T07:20:20;29.33;;;14.27;;
3309;SDS011;1667;53.238;10.394;2023-02-23T07:25:18;24.20;;;11.73;;
3309;SDS011;1667;53.238;10.394;2023-02-23T07:30:18;24.93;;;11.50;;
3309;SDS011;1667;53.238;10.394;2023-02-23T07:35:20;26.43;;;12.70;;
3309;SDS011;1667;53.238;10.394;2023-02-23T07:40:18;41.90;;;19.07;;
3309;SDS011;1667;53.238;10.394;2023-02-23T07:45:18;27.10;;;12.30;;
3309;SDS011;1667;53.238;10.394;2023-02-23T07:50:16;26.80;;;13.07;;
3309;SDS011;1667;53.238;10.394;2023-02-23T07:55:15;32.27;;;15.07;;
3309;SDS011;1667;53.238;10.394;2023-02-23T08:00:14;32.70;;;14.97;;
3309;SDS011;1667;53.238;10.394;2023-02-23T08:05:14;28.97;;;13.33;;
3309;SDS011;1667;53.238;10.394;2023-02-23T08:10:13;28.00;;;13.73;;
3309;SDS011;1667;53.238;10.394;2023-02-23T08:15:11;31.83;;;15.20;;
3309;SDS011;1667;53.238;10.394;2023-02-23T08:20:11;37.47;;;17.20;;
3309;SDS011;1667;53.238;10.394;2023-02-23T08:25:11;42.20;;;20.30;;
3309;SDS011;1667;53.238;10.394;2023-02-23T08:30:10;34.03;;;15.70;;
3309;SDS011;1667;53.238;10.394;2023-02-23T08:35:10;32.87;;;17.10;;
3309;SDS011;1667;53.238;10.394;2023-02-23T08:40:10;33.27;;;15.73;;
3309;SDS011;1667;53.238;10.394;2023-02-23T08:45:11;33.20;;;16.43;;
3309;SDS011;1667;53.238;10.394;2023-02-23T08:50:10;28.47;;;15.77;;
3309;SDS011;1667;53.238;10.394;2023-02-23T08:55:09;41.70;;;20.37;;
3309;SDS011;1667;53.238;10.394;2023-02-23T09:00:12;38.80;;;18.27;;
3309;SDS011;1667;53.238;10.394;2023-02-23T09:05:12;33.20;;;16.40;;
3309;SDS011;1667;53.238;10.394;2023-02-23T09:10:11;42.77;;;20.50;;
3309;SDS011;1667;53.238;10.394;2023-02-23T09:15:12;32.20;;;14.33;;
3309;SDS011;1667;53.238;10.394;2023-02-23T09:20:11;28.87;;;15.80;;
3309;SDS011;1667;53.238;10.394;2023-02-23T09:25:11;33.97;;;16.30;;
3309;SDS011;1667;53.238;10.394;2023-02-23T09:30:18;31.93;;;16.10;;
3309;SDS011;1667;53.238;10.394;2023-02-23T09:35:18;33.60;;;15.37;;
3309;SDS011;1667;53.238;10.394;2023-02-23T09:40:19;33.70;;;17.10;;
3309;SDS011;1667;53.238;10.394;2023-02-23T09:45:24;26.83;;;14.47;;
3309;SDS011;1667;53.238;10.394;2023-02-23T09:50:29;31.83;;;14.67;;
3309;SDS011;1667;53.238;10.394;2023-02-23T09:55:28;23.37;;;13.53;;
3309;SDS011;1667;53.238;10.394;2023-02-23T10:00:29;24.73;;;13.50;;
3309;SDS011;1667;53.238;10.394;2023-02-23T10:05:31;21.70;;;10.87;;
3309;SDS011;1667;53.238;10.394;2023-02-23T10:10:37;25.67;;;13.63;;
3309;SDS011;1667;53.238;10.394;2023-02-23T10:15:43;16.90;;;10.53;;
3309;SDS011;1667;53.238;10.394;2023-02-23T10:20:48;18.43;;;10.57;;
3309;SDS011;1667;53.238;10.394;2023-02-23T10:25:55;18.10;;;10.50;;
3309;SDS011;1667;53.238;10.394;2023-02-23T10:30:57;17.43;;;9.70;;
3309;SDS011;1667;53.238;10.394;2023-02-23T10:35:57;20.70;;;8.97;;
3309;SDS011;1667;53.238;10.394;2023-02-23T10:41:09;19.90;;;10.07;;
3309;SDS011;1667;53.238;10.394;2023-02-23T10:46:16;12.83;;;8.10;;
3309;SDS011;1667;53.238;10.394;2023-02-23T10:51:18;11.90;;;7.87;;
3309;SDS011;1667;53.238;10.394;2023-02-23T10:56:22;11.50;;;8.50;;
3309;SDS011;1667;53.238;10.394;2023-02-23T11:01:33;10.07;;;7.20;;
3309;SDS011;1667;53.238;10.394;2023-02-23T11:07:05;13.40;;;7.30;;
3309;SDS011;1667;53.238;10.394;2023-02-23T11:12:14;14.57;;;10.07;;
3309;SDS011;1667;53.238;10.394;2023-02-23T11:17:29;16.90;;;9.70;;
3309;SDS011;1667;53.238;10.394;2023-02-23T11:22:30;25.73;;;12.67;;
3309;SDS011;1667;53.238;10.394;2023-02-23T11:27:30;21.03;;;10.30;;
3309;SDS011;1667;53.238;10.394;2023-02-23T11:32:31;25.37;;;12.23;;
3309;SDS011;1667;53.238;10.394;2023-02-23T11:37:34;27.17;;;14.70;;
3309;SDS011;1667;53.238;10.394;2023-02-23T11:42:33;22.00;;;11.93;;
3309;SDS011;1667;53.238;10.394;2023-02-23T11:47:33;24.43;;;11.73;;
3309;SDS011;1667;53.238;10.394;2023-02-23T11:52:37;32.27;;;13.23;;
3309;SDS011;1667;53.238;10.394;2023-02-23T11:57:41;36.07;;;15.03;;
3309;SDS011;1667;53.238;10.394;2023-02-23T12:02:46;49.90;;;22.10;;
3309;SDS011;1667;53.238;10.394;2023-02-23T12:07:50;57.90;;;19.03;;
3309;SDS011;1667;53.238;10.394;2023-02-23T12:12:55;47.30;;;15.63;;
3309;SDS011;1667;53.238;10.394;2023-02-23T12:18:01;53.73;;;21.70;;
3309;SDS011;1667;53.238;10.394;2023-02-23T12:23:09;72.77;;;26.47;;
3309;SDS011;1667;53.238;10.394;2023-02-23T12:28:12;62.27;;;21.70;;
3309;SDS011;1667;53.238;10.394;2023-02-23T12:33:19;51.67;;;20.50;;
3309;SDS011;1667;53.238;10.394;2023-02-23T12:38:27;61.07;;;21.20;;
3309;SDS011;1667;53.238;10.394;2023-02-23T12:43:35;64.83;;;22.17;;
3309;SDS011;1667;53.238;10.394;2023-02-23T12:48:41;61.13;;;19.97;;
3309;SDS011;1667;53.238;10.394;2023-02-23T12:53:47;55.40;;;22.30;;
3309;SDS011;1667;53.238;10.394;2023-02-23T12:58:46;59.43;;;22.97;;
3309;SDS011;1667;53.238;10.394;2023-02-23T13:03:56;63.13;;;21.10;;
3309;SDS011;1667;53.238;10.394;2023-02-23T13:09:09;50.53;;;18.40;;
3309;SDS011;1667;53.238;10.394;2023-02-23T13:14:21;60.00;;;19.63;;
3309;SDS011;1667;53.238;10.394;2023-02-23T13:19:28;68.50;;;20.20;;
3309;SDS011;1667;53.238;10.394;2023-02-23T13:24:34;62.27;;;22.90;;
3309;SDS011;1667;53.238;10.394;2023-02-23T13:29:36;61.00;;;20.20;;
3309;SDS011;1667;53.238;10.394;2023-02-23T13:34:40;65.97;;;21.40;;
3309;SDS011;1667;53.238;10.394;2023-02-23T13:39:45;54.00;;;20.60;;
3309;SDS011;1667;53.238;10.394;2023-02-23T13:44:54;62.67;;;19.27;;
3309;SDS011;1667;53.238;10.394;2023-02-23T13:50:06;52.47;;;15.27;;
3309;SDS011;1667;53.238;10.394;2023-02-23T14:00:49;60.13;;;21.10;;
3309;SDS011;1667;53.238;10.394;2023-02-23T14:06:01;61.97;;;20.43;;
3309;SDS011;1667;53.238;10.394;2023-02-23T14:11:02;65.63;;;20.87;;
3309;SDS011;1667;53.238;10.394;2023-02-23T14:16:13;62.87;;;20.80;;
3309;SDS011;1667;53.238;10.394;2023-02-23T14:21:17;60.73;;;19.80;;
3309;SDS011;1667;53.238;10.394;2023-02-23T14:26:38;70.80;;;24.90;;
3309;SDS011;1667;53.238;10.394;2023-02-23T14:31:38;55.43;;;19.33;;
3309;SDS011;1667;53.238;10.394;2023-02-23T14:36:52;61.50;;;19.40;;
3309;SDS011;1667;53.238;10.394;2023-02-23T14:41:52;50.73;;;16.77;;
3309;SDS011;1667;53.238;10.394;2023-02-23T14:46:56;56.47;;;18.10;;
3309;SDS011;1667;53.238;10.394;2023-02-23T14:58:00;58.40;;;20.43;;
3309;SDS011;1667;53.238;10.394;2023-02-23T15:03:01;64.60;;;21.30;;
3309;SDS011;1667;53.238;10.394;2023-02-23T15:08:02;59.80;;;19.47;;
3309;SDS011;1667;53.238;10.394;2023-02-23T15:13:08;67.83;;;20.30;;
3309;SDS011;1667;53.238;10.394;2023-02-23T15:18:09;58.60;;;21.93;;
3309;SDS011;1667;53.238;10.394;2023-02-23T15:23:19;53.57;;;18.83;;
3309;SDS011;1667;53.238;10.394;2023-02-23T15:28:20;53.03;;;16.43;;
3309;SDS011;1667;53.238;10.394;2023-02-23T15:33:21;63.90;;;21.60;;
3309;SDS011;1667;53.238;10.394;2023-02-23T15:38:25;59.43;;;21.60;;
3309;SDS011;1667;53.238;10.394;2023-02-23T15:43:42;49.80;;;20.43;;
3309;SDS011;1667;53.238;10.394;2023-02-23T15:48:41;42.70;;;15.60;;
3309;SDS011;1667;53.238;10.394;2023-02-23T15:53:43;43.63;;;16.77;;
3309;SDS011;1667;53.238;10.394;2023-02-23T15:58:46;52.53;;;20.70;;
3309;SDS011;1667;53.238;10.394;2023-02-23T16:03:56;54.07;;;18.00;;
3309;SDS011;1667;53.238;10.394;2023-02-23T16:08:59;52.00;;;18.33;;
3309;SDS011;1667;53.238;10.394;2023-02-23T16:14:02;57.83;;;20.50;;
3309;SDS011;1667;53.238;10.394;2023-02-23T16:19:02;48.47;;;17.17;;
3309;SDS011;1667;53.238;10.394;2023-02-23T16:24:04;49.00;;;15.60;;
3309;SDS011;1667;53.238;10.394;2023-02-23T16:29:06;57.30;;;17.73;;
3309;SDS011;1667;53.238;10.394;2023-02-23T16:34:18;42.87;;;15.43;;
3309;SDS011;1667;53.238;10.394;2023-02-23T16:39:17;64.23;;;20.20;;
3309;SDS011;1667;53.238;10.394;2023-02-23T16:44:18;48.67;;;16.60;;
3309;SDS011;1667;53.238;10.394;2023-02-23T16:49:23;43.87;;;16.23;;
3309;SDS011;1667;53.238;10.394;2023-02-23T16:54:25;46.43;;;16.20;;
3309;SDS011;1667;53.238;10.394;2023-02-23T16:59:25;37.33;;;15.10;;
3309;SDS011;1667;53.238;10.394;2023-02-23T17:04:24;44.03;;;16.50;;
3309;SDS011;1667;53.238;10.394;2023-02-23T17:09:24;48.77;;;20.40;;
3309;SDS011;1667;53.238;10.394;2023-02-23T17:14:26;40.87;;;14.07;;
3309;SDS011;1667;53.238;10.394;2023-02-23T17:19:27;40.33;;;16.40;;
3309;SDS011;1667;53.238;10.394;2023-02-23T17:24:25;46.07;;;17.20;;
3309;SDS011;1667;53.238;10.394;2023-02-23T17:29:26;32.17;;;12.83;;
3309;SDS011;1667;53.238;10.394;2023-02-23T17:34:24;28.57;;;11.97;;
3309;SDS011;1667;53.238;10.394;2023-02-23T17:39:23;21.07;;;6.27;;
3309;SDS011;1667;53.238;10.394;2023-02-23T17:44:23;17.00;;;7.40;;
3309;SDS011;1667;53.238;10.394;2023-02-23T17:49:24;20.73;;;8.20;;
3309;SDS011;1667;53.238;10.394;2023-02-23T17:54:22;17.13;;;6.70;;
3309;SDS011;1667;53.238;10.394;2023-02-23T17:59:21;16.30;;;5.43;;
3309;SDS011;1667;53.238;10.394;2023-02-23T18:04:21;21.33;;;7.80;;
3309;SDS011;1667;53.238;10.394;2023-02-23T18:09:20;21.70;;;6.40;;
3309;SDS011;1667;53.238;10.394;2023-02-23T18:14:19;33.40;;;9.40;;
3309;SDS011;1667;53.238;10.394;2023-02-23T18:19:18;28.43;;;8.20;;
3309;SDS011;1667;53.238;10.394;2023-02-23T18:24:18;24.13;;;7.40;;
3309;SDS011;1667;53.238;10.394;2023-02-23T18:29:17;29.97;;;7.00;;
3309;SDS011;1667;53.238;10.394;2023-02-23T18:34:15;26.47;;;8.47;;
3309;SDS011;1667;53.238;10.394;2023-02-23T18:39:14;20.60;;;7.17;;
3309;SDS011;1667;53.238;10.394;2023-02-23T18:44:15;21.60;;;5.07;;
3309;SDS011;1667;53.238;10.394;2023-02-23T18:49:14;23.57;;;7.30;;
3309;SDS011;1667;53.238;10.394;2023-02-23T18:54:14;15.13;;;4.20;;
3309;SDS011;1667;53.238;10.394;2023-02-23T18:59:15;18.97;;;4.73;;
3309;SDS011;1667;53.238;10.394;2023-02-23T19:04:14;17.60;;;4.53;;
3309;SDS011;1667;53.238;10.394;2023-02-23T19:09:12;17.00;;;4.83;;
3309;SDS011;1667;53.238;10.394;2023-02-23T19:14:16;8.80;;;2.93;;
3309;SDS011;1667;53.238;10.394;2023-02-23T19:19:32;15.43;;;5.60;;
3309;SDS011;1667;53.238;10.394;2023-02-23T19:24:31;10.87;;;4.10;;
3309;SDS011;1667;53.238;10.394;2023-02-23T19:29:33;7.83;;;3.53;;
3309;SDS011;1667;53.238;10.394;2023-02-23T19:34:32;10.70;;;3.87;;
3309;SDS011;1667;53.238;10.394;2023-02-23T19:39:31;5.47;;;2.30;;
3309;SDS011;1667;53.238;10.394;2023-02-23T19:44:30;19.10;;;3.90;;
3309;SDS011;1667;53.238;10.394;2023-02-23T19:49:29;10.27;;;4.60;;
3309;SDS011;1667;53.238;10.394;2023-02-23T19:54:28;14.17;;;3.83;;
3309;SDS011;1667;53.238;10.394;2023-02-23T19:59:29;12.40;;;3.50;;
3309;SDS011;1667;53.238;10.394;2023-02-23T20:04:29;23.93;;;3.17;;
3309;SDS011;1667;53.238;10.394;2023-02-23T20:09:28;11.87;;;3.50;;
3309;SDS011;1667;53.238;10.394;2023-02-23T20:14:26;12.97;;;3.80;;
3309;SDS011;1667;53.238;10.394;2023-02-23T20:19:24;15.37;;;3.17;;
3309;SDS011;1667;53.238;10.394;2023-02-23T20:24:24;12.97;;;3.30;;
3309;SDS011;1667;53.238;10.394;2023-02-23T20:29:22;10.57;;;4.00;;
3309;SDS011;1667;53.238;10.394;2023-02-23T20:34:23;13.03;;;3.50;;
3309;SDS011;1667;53.238;10.394;2023-02-23T20:39:22;10.83;;;1.70;;
3309;SDS011;1667;53.238;10.394;2023-02-23T20:44:22;8.67;;;2.97;;
3309;SDS011;1667;53.238;10.394;2023-02-23T20:49:21;12.27;;;2.90;;
3309;SDS011;1667;53.238;10.394;2023-02-23T20:54:21;10.23;;;1.27;;
3309;SDS011;1667;53.238;10.394;2023-02-23T20:59:20;12.23;;;3.10;;
3309;SDS011;1667;53.238;10.394;2023-02-23T21:04:18;11.87;;;2.43;;
3309;SDS011;1667;53.238;10.394;2023-02-23T21:09:17;6.73;;;2.10;;
3309;SDS011;1667;53.238;10.394;2023-02-23T21:14:15;11.20;;;3.20;;
3309;SDS011;1667;53.238;10.394;2023-02-23T21:19:15;6.83;;;2.30;;
3309;SDS011;1667;53.238;10.394;2023-02-23T21:24:15;6.40;;;1.80;;
3309;SDS011;1667;53.238;10.394;2023-02-23T21:29:14;10.40;;;2.50;;
3309;SDS011;1667;53.238;10.394;2023-02-23T21:34:13;6.23;;;1.70;;
3309;SDS011;1667;53.238;10.394;2023-02-23T21:39:16;12.27;;;2.57;;
3309;SDS011;1667;53.238;10.394;2023-02-23T21:44:14;6.67;;;2.20;;
3309;SDS011;1667;53.238;10.394;2023-02-23T21:49:12;10.50;;;2.10;;
3309;SDS011;1667;53.238;10.394;2023-02-23T21:54:12;7.90;;;2.90;;
3309;SDS011;1667;53.238;10.394;2023-02-23T21:59:12;11.90;;;2.97;;
3309;SDS011;1667;53.238;10.394;2023-02-23T22:04:12;17.23;;;2.73;;
3309;SDS011;1667;53.238;10.394;2023-02-23T22:09:11;4.63;;;1.90;;
3309;SDS011;1667;53.238;10.394;2023-02-23T22:14:12;12.20;;;2.27;;
3309;SDS011;1667;53.238;10.394;2023-02-23T22:19:13;15.03;;;2.47;;
3309;SDS011;1667;53.238;10.394;2023-02-23T22:24:13;14.83;;;2.57;;
3309;SDS011;1667;53.238;10.394;2023-02-23T22:29:13;6.40;;;1.93;;
3309;SDS011;1667;53.238;10.394;2023-02-23T22:34:12;8.87;;;2.57;;
3309;SDS011;1667;53.238;10.394;2023-02-23T22:39:10;10.10;;;2.03;;
3309;SDS011;1667;53.238;10.394;2023-02-23T22:44:14;6.17;;;1.90;;
3309;SDS011;1667;53.238;10.394;2023-02-23T22:49:14;11.70;;;2.13;;
3309;SDS011;1667;53.238;10.394;2023-02-23T22:54:15;6.03;;;1.63;;
3309;SDS011;1667;53.238;10.394;2023-02-23T22:59:15;10.40;;;1.97;;
3309;SDS011;1667;53.238;10.394;2023-02-23T23:04:15;8.37;;;1.97;;
3309;SDS011;1667;53.238;10.394;2023-02-23T23:09:17;9.53;;;1.33;;
3309;SDS011;1667;53.238;10.394;2023-02-23T23:14:18;8.00;;;2.97;;
3309;SDS011;1667;53.238;10.394;2023-02-23T23:19:19;9.37;;;1.83;;
3309;SDS011;1667;53.238;10.394;2023-02-23T23:24:19;5.17;;;1.80;;
3309;SDS011;1667;53.238;10.394;2023-02-23T23:29:21;9.40;;;2.37;;
3309;SDS011;1667;53.238;10.394;2023-02-23T23:34:21;7.40;;;2.50;;
3309;SDS011;1667;53.238;10.394;2023-02-23T23:39:21;6.70;;;2.63;;
3309;SDS011;1667;53.238;10.394;2023-02-23T23:44:23;11.80;;;1.97;;
3309;SDS011;1667;53.238;10.394;2023-02-23T23:49:25;11.70;;;2.07;;
3309;SDS011;1667;53.238;10.394;2023-02-23T23:54:23;9.43;;;1.53;;
3309;SDS011;1667;53.238;10.394;2023-02-23T23:59:24;12.23;;;1.60;;
